createdAt,value
2023-02-19T00:04:30.822Z,10.48
2023-02-19T00:09:32.791Z,9.27
2023-02-19T00:14:34.685Z,10.20
2023-02-19T00:19:36.609Z,11.07
2023-02-19T00:24:38.588Z,10.63
2023-02-19T00:29:40.536Z,11.40
2023-02-19T00:34:42.420Z,9.60
2023-02-19T00:39:44.345Z,10.88
2023-02-19T00:44:46.252Z,10.38
2023-02-19T00:49:48.198Z,10.95
2023-02-19T00:54:50.093Z,8.32
2023-02-19T00:59:52.046Z,10.32
2023-02-19T01:04:53.993Z,12.15
2023-02-19T01:09:55.900Z,11.52
2023-02-19T01:14:58.290Z,10.38
2023-02-19T01:25:01.894Z,8.40
2023-02-19T01:30:05.665Z,11.20
2023-02-19T01:35:07.761Z,10.57
2023-02-19T01:40:09.904Z,10.95
2023-02-19T01:45:37.499Z,11.07
2023-02-19T01:50:44.547Z,12.35
2023-02-19T01:55:47.091Z,10.82
2023-02-19T02:00:49.040Z,11.48
2023-02-19T02:06:12.036Z,11.68
2023-02-19T02:11:13.918Z,11.50
2023-02-19T02:16:28.204Z,11.93
2023-02-19T02:21:36.620Z,11.93
2023-02-19T02:27:15.310Z,10.73
2023-02-19T02:32:21.632Z,9.95
2023-02-19T02:37:24.380Z,9.63
2023-02-19T02:42:26.337Z,9.38
2023-02-19T02:47:28.579Z,10.25
2023-02-19T02:52:30.630Z,10.07
2023-02-19T02:57:32.580Z,9.98
2023-02-19T03:02:34.635Z,11.35
2023-02-19T03:07:45.267Z,9.77
2023-02-19T03:12:47.157Z,9.48
2023-02-19T03:17:53.116Z,9.63
2023-02-19T03:22:55.047Z,10.48
2023-02-19T03:27:58.255Z,9.07
2023-02-19T03:33:16.140Z,10.25
2023-02-19T03:38:37.010Z,10.02
2023-02-19T03:44:04.930Z,10.13
2023-02-19T03:49:33.083Z,10.15
2023-02-19T03:54:38.288Z,8.98
2023-02-19T03:59:56.407Z,10.45
2023-02-19T04:05:14.201Z,10.48
2023-02-19T04:10:18.750Z,9.88
2023-02-19T04:15:23.502Z,9.18
2023-02-19T04:20:26.730Z,8.40
2023-02-19T04:25:28.824Z,8.75
2023-02-19T04:30:30.835Z,8.30
2023-02-19T04:35:32.906Z,9.18
2023-02-19T04:40:34.845Z,10.65
2023-02-19T04:45:39.911Z,10.35
2023-02-19T04:50:42.089Z,10.27
2023-02-19T04:55:44.053Z,10.10
2023-02-19T05:00:46.417Z,11.10
2023-02-19T05:05:48.326Z,11.85
2023-02-19T05:10:50.155Z,11.27
2023-02-19T05:15:59.445Z,11.48
2023-02-19T05:21:01.919Z,9.80
2023-02-19T05:26:13.139Z,10.82
2023-02-19T05:31:15.359Z,9.40
2023-02-19T05:36:17.932Z,9.65
2023-02-19T05:41:22.248Z,10.95
2023-02-19T05:46:25.697Z,9.52
2023-02-19T05:51:27.644Z,9.55
2023-02-19T05:56:37.121Z,9.02
2023-02-19T06:01:39.008Z,10.68
2023-02-19T06:06:40.925Z,7.97
2023-02-19T06:11:43.149Z,8.40
2023-02-19T06:16:45.101Z,10.05
2023-02-19T06:21:46.929Z,8.15
2023-02-19T06:26:48.825Z,8.85
2023-02-19T06:31:51.052Z,9.13
2023-02-19T06:41:58.209Z,8.05
2023-02-19T06:47:00.097Z,8.80
2023-02-19T06:52:01.952Z,9.13
2023-02-19T06:57:03.839Z,7.10
2023-02-19T07:02:06.051Z,7.05
2023-02-19T07:07:11.247Z,7.72
2023-02-19T07:12:13.114Z,8.73
2023-02-19T07:17:14.982Z,8.15
2023-02-19T07:22:18.167Z,7.30
2023-02-19T07:27:20.074Z,8.77
2023-02-19T07:32:22.005Z,7.05
2023-02-19T07:37:23.799Z,6.90
2023-02-19T07:42:25.605Z,7.53
2023-02-19T07:47:29.413Z,8.95
2023-02-19T07:52:31.294Z,9.13
2023-02-19T07:57:33.235Z,9.05
2023-02-19T08:02:35.116Z,8.68
2023-02-19T08:07:37.105Z,6.75
2023-02-19T08:12:38.980Z,9.40
2023-02-19T08:17:40.853Z,7.68
2023-02-19T08:22:42.746Z,9.20
2023-02-19T08:27:44.574Z,8.13
2023-02-19T08:32:46.465Z,9.20
2023-02-19T08:37:48.385Z,8.00
2023-02-19T08:42:50.362Z,9.00
2023-02-19T08:47:52.238Z,7.18
2023-02-19T08:52:54.184Z,6.67
2023-02-19T08:57:56.076Z,8.50
2023-02-19T09:02:58.503Z,7.20
2023-02-19T09:08:00.369Z,9.20
2023-02-19T09:13:02.235Z,7.97
2023-02-19T09:18:04.288Z,8.93
2023-02-19T09:23:06.195Z,9.88
2023-02-19T09:28:07.992Z,9.52
2023-02-19T09:33:09.864Z,9.57
2023-02-19T09:38:11.857Z,6.97
2023-02-19T09:43:16.986Z,9.55
2023-02-19T09:48:18.863Z,8.88
2023-02-19T09:53:25.451Z,9.27
2023-02-19T09:58:57.279Z,9.77
2023-02-19T10:03:59.116Z,8.80
2023-02-19T10:09:13.852Z,9.40
2023-02-19T10:14:41.828Z,10.20
2023-02-19T10:19:43.698Z,8.75
2023-02-19T10:24:45.572Z,6.83
2023-02-19T10:29:49.222Z,7.80
2023-02-19T10:35:10.732Z,9.02
2023-02-19T10:40:20.150Z,10.07
2023-02-19T10:45:23.692Z,9.18
2023-02-19T10:50:36.530Z,9.40
2023-02-19T10:55:38.533Z,9.88
2023-02-19T11:00:40.434Z,9.55
2023-02-19T11:05:51.562Z,9.57
2023-02-19T11:10:53.340Z,9.27
2023-02-19T11:15:55.895Z,7.87
2023-02-19T11:20:59.615Z,11.68
2023-02-19T11:26:03.863Z,11.23
2023-02-19T11:31:25.397Z,9.05
2023-02-19T11:36:34.784Z,9.93
2023-02-19T11:41:53.870Z,8.98
2023-02-19T11:47:14.494Z,9.38
2023-02-19T11:52:34.859Z,8.98
2023-02-19T11:57:46.324Z,8.10
2023-02-19T12:03:17.580Z,8.45
2023-02-19T12:08:40.493Z,9.30
2023-02-19T12:13:42.169Z,9.25
2023-02-19T12:19:04.726Z,9.40
2023-02-19T12:24:44.551Z,10.10
2023-02-19T12:29:49.153Z,8.02
2023-02-19T12:35:23.712Z,9.93
2023-02-19T12:41:15.741Z,9.52
2023-02-19T12:46:20.877Z,8.98
2023-02-19T12:51:24.210Z,9.65
2023-02-19T12:56:29.804Z,10.45
2023-02-19T13:01:39.308Z,10.15
2023-02-19T13:06:50.482Z,8.43
2023-02-19T13:12:02.376Z,10.07
2023-02-19T13:17:25.065Z,9.90
2023-02-19T13:22:38.034Z,7.37
2023-02-19T13:33:16.732Z,9.90
2023-02-19T13:38:18.556Z,10.00
2023-02-19T13:43:25.761Z,8.27
2023-02-19T13:48:35.519Z,10.63
2023-02-19T13:53:43.031Z,11.13
2023-02-19T13:59:12.630Z,10.15
2023-02-19T14:04:20.132Z,9.57
2023-02-19T14:09:48.211Z,10.95
2023-02-19T14:14:55.811Z,10.77
2023-02-19T14:19:58.466Z,9.75
2023-02-19T14:25:00.253Z,9.52
2023-02-19T14:30:02.300Z,9.37
2023-02-19T14:35:05.963Z,11.15
2023-02-19T14:40:10.586Z,7.97
2023-02-19T14:45:14.178Z,10.82
2023-02-19T14:50:36.230Z,11.85
2023-02-19T14:55:38.441Z,10.15
2023-02-19T15:00:41.211Z,9.82
2023-02-19T15:05:43.156Z,10.63
2023-02-19T15:10:45.046Z,10.85
2023-02-19T15:15:47.567Z,7.65
2023-02-19T15:20:49.795Z,10.15
2023-02-19T15:25:53.102Z,12.52
2023-02-19T15:30:58.037Z,12.32
2023-02-19T15:36:01.872Z,11.80
2023-02-19T15:41:04.294Z,11.20
2023-02-19T15:46:14.972Z,12.02
2023-02-19T15:51:25.828Z,13.18
2023-02-19T15:56:32.128Z,11.93
2023-02-19T16:01:37.453Z,13.18
2023-02-19T16:06:54.581Z,12.25
2023-02-19T16:11:58.260Z,13.25
2023-02-19T16:17:11.933Z,12.27
2023-02-19T16:22:16.355Z,13.00
2023-02-19T16:27:38.018Z,13.68
2023-02-19T16:32:39.925Z,13.15
2023-02-19T16:37:59.082Z,11.13
2023-02-19T16:43:12.998Z,13.43
2023-02-19T16:48:15.379Z,14.27
2023-02-19T16:58:23.160Z,13.50
2023-02-19T17:03:25.087Z,13.45
2023-02-19T17:08:33.156Z,10.23
2023-02-19T17:13:35.609Z,14.18
2023-02-19T17:23:39.561Z,14.15
2023-02-19T17:28:41.624Z,13.80
2023-02-19T17:33:44.002Z,14.80
2023-02-19T17:43:47.650Z,13.55
2023-02-19T17:48:49.970Z,16.27
2023-02-19T17:53:51.950Z,15.73
2023-02-19T17:58:54.866Z,14.88
2023-02-19T18:03:56.914Z,14.73
2023-02-19T18:08:58.821Z,15.15
2023-02-19T18:14:00.817Z,11.77
2023-02-19T18:19:02.698Z,15.25
2023-02-19T18:24:04.959Z,14.88
2023-02-19T18:29:06.834Z,14.65
2023-02-19T18:34:16.082Z,12.27
2023-02-19T18:39:17.973Z,14.95
2023-02-19T18:44:21.141Z,14.57
2023-02-19T18:49:23.064Z,15.05
2023-02-19T18:54:25.190Z,14.38
2023-02-19T18:59:27.204Z,15.70
2023-02-19T19:04:29.353Z,15.77
2023-02-19T19:09:31.424Z,16.45
2023-02-19T19:14:33.426Z,17.60
2023-02-19T19:19:35.292Z,17.60
2023-02-19T19:24:37.260Z,17.00
2023-02-19T19:29:39.207Z,17.25
2023-02-19T19:34:41.307Z,18.20
2023-02-19T19:39:43.612Z,20.08
2023-02-19T19:44:45.578Z,19.38
2023-02-19T19:49:47.515Z,18.48
2023-02-19T19:54:49.409Z,15.65
2023-02-19T19:59:51.478Z,15.50
2023-02-19T20:04:53.370Z,19.65
2023-02-19T20:09:55.300Z,19.27
2023-02-19T20:14:57.275Z,17.30
2023-02-19T20:19:59.159Z,18.88
2023-02-19T20:25:01.171Z,19.48
2023-02-19T20:30:03.794Z,20.45
2023-02-19T20:35:06.594Z,20.30
2023-02-19T20:40:08.632Z,19.20
2023-02-19T20:45:10.624Z,19.17
2023-02-19T20:50:12.631Z,19.95
2023-02-19T20:55:14.457Z,20.08
2023-02-19T21:00:16.838Z,14.40
2023-02-19T21:10:20.456Z,19.23
2023-02-19T21:15:22.749Z,16.63
2023-02-19T21:20:24.574Z,15.98
2023-02-19T21:25:26.736Z,17.95
2023-02-19T21:30:30.006Z,18.25
2023-02-19T21:35:31.978Z,18.17
2023-02-19T21:40:33.804Z,17.77
2023-02-19T21:45:35.744Z,14.23
2023-02-19T21:50:37.656Z,17.38
2023-02-19T21:55:41.126Z,18.67
2023-02-19T22:00:44.770Z,19.40
2023-02-19T22:05:46.734Z,21.52
2023-02-19T22:10:48.606Z,19.90
2023-02-19T22:15:50.479Z,20.58
2023-02-19T22:20:52.431Z,22.40
2023-02-19T22:25:54.417Z,20.95
2023-02-19T22:30:56.333Z,22.25
2023-02-19T22:35:58.415Z,20.13
2023-02-19T22:41:00.367Z,22.45
2023-02-19T22:46:02.525Z,21.23
2023-02-19T22:51:04.502Z,20.70
2023-02-19T22:56:06.548Z,23.38
2023-02-19T23:01:09.228Z,22.73
2023-02-19T23:06:11.442Z,22.70
2023-02-19T23:11:13.579Z,21.15
2023-02-19T23:16:15.955Z,21.80
2023-02-19T23:26:19.735Z,20.58
2023-02-19T23:31:21.753Z,20.15
2023-02-19T23:36:23.705Z,20.35
2023-02-19T23:41:25.633Z,21.08
2023-02-19T23:46:27.606Z,13.48
2023-02-19T23:51:29.577Z,18.88
2023-02-19T23:56:31.640Z,18.85
